sensor_id;sensor_type;location;lat;lon;timestamp;P1;P2;P0
57798;PMS7003;43626;53.866;30.298;2023-08-06T00:00:37;152.8;149.4;140
57798;PMS7003;43626;53.866;30.298;2023-08-06T00:05:51;154.6;152;143.6
57798;PMS7003;43626;53.866;30.298;2023-08-06T00:11:01;156.3;154;145.5
57798;PMS7003;43626;53.866;30.298;2023-08-06T00:15:37;164.6;162.4;154.8
57798;PMS7003;43626;53.866;30.298;2023-08-06T00:20:29;173;171.4;161.6
57798;PMS7003;43626;53.866;30.298;2023-08-06T00:26:01;171.4;168.8;160.2
57798;PMS7003;43626;53.866;30.298;2023-08-06T00:30:23;174;172.2;163.8
57798;PMS7003;43626;53.866;30.298;2023-08-06T00:35:39;181.4;180.2;173.2
57798;PMS7003;43626;53.866;30.298;2023-08-06T00:40:29;176.4;175;167.4
57798;PMS7003;43626;53.866;30.298;2023-08-06T00:45:51;189.4;186.8;177.8
57798;PMS7003;43626;53.866;30.298;2023-08-06T00:50:31;189.2;185.6;177.2
57798;PMS7003;43626;53.866;30.298;2023-08-06T00:55:29;191.6;189.8;181
57798;PMS7003;43626;53.866;30.298;2023-08-06T01:01:01;188.8;187.8;179.6
57798;PMS7003;43626;53.866;30.298;2023-08-06T01:05:51;201.2;199.8;191
57798;PMS7003;43626;53.866;30.298;2023-08-06T01:10:39;205.4;204;195
57798;PMS7003;43626;53.866;30.298;2023-08-06T01:15:41;202.8;201.5;193.5
57798;PMS7003;43626;53.866;30.298;2023-08-06T01:21:01;199.8;199.2;191.2
57798;PMS7003;43626;53.866;30.298;2023-08-06T01:25:39;194.4;192.8;184.4
57798;PMS7003;43626;53.866;30.298;2023-08-06T01:30:31;192.6;189.4;181.4
57798;PMS7003;43626;53.866;30.298;2023-08-06T01:36:01;182;179.6;171.8
57798;PMS7003;43626;53.866;30.298;2023-08-06T01:40:51;174;172.6;164
57798;PMS7003;43626;53.866;30.298;2023-08-06T01:46:01;176.6;175.2;166.6
57798;PMS7003;43626;53.866;30.298;2023-08-06T01:50:51;167;165.6;156.6
57798;PMS7003;43626;53.866;30.298;2023-08-06T01:55:29;165.2;162.8;153.4
57798;PMS7003;43626;53.866;30.298;2023-08-06T02:00:29;164.8;162.4;152.6
57798;PMS7003;43626;53.866;30.298;2023-08-06T02:06:01;155.8;153.8;144.2
57798;PMS7003;43626;53.866;30.298;2023-08-06T02:10:51;157.4;156;146.8
57798;PMS7003;43626;53.866;30.298;2023-08-06T02:15:49;152.3;151;143.8
57798;PMS7003;43626;53.866;30.298;2023-08-06T02:21:01;150;147.8;139.8
57798;PMS7003;43626;53.866;30.298;2023-08-06T02:25:53;153;150.6;141.8
57798;PMS7003;43626;53.866;30.298;2023-08-06T02:30:23;149.4;146.8;137.8
57798;PMS7003;43626;53.866;30.298;2023-08-06T02:35:29;149.4;146.4;137.4
57798;PMS7003;43626;53.866;30.298;2023-08-06T02:41:02;148;146.4;137
57798;PMS7003;43626;53.866;30.298;2023-08-06T02:46:01;146.4;144;136.2
57798;PMS7003;43626;53.866;30.298;2023-08-06T02:51:01;144.8;142.4;135.2
57798;PMS7003;43626;53.866;30.298;2023-08-06T02:56:01;147;144.8;136.4
57798;PMS7003;43626;53.866;30.298;2023-08-06T03:00:25;148.2;147;137.8
57798;PMS7003;43626;53.866;30.298;2023-08-06T03:06:01;145.4;144.2;135.4
57798;PMS7003;43626;53.866;30.298;2023-08-06T03:10:25;144.6;144;134
57798;PMS7003;43626;53.866;30.298;2023-08-06T03:16:01;145;143;134.3
57798;PMS7003;43626;53.866;30.298;2023-08-06T03:20:47;146.8;144;133.6
57798;PMS7003;43626;53.866;30.298;2023-08-06T03:25:35;143.8;142;132.6
57798;PMS7003;43626;53.866;30.298;2023-08-06T03:31:01;143.4;139.8;129.8
57798;PMS7003;43626;53.866;30.298;2023-08-06T03:35:23;141;138.4;129
57798;PMS7003;43626;53.866;30.298;2023-08-06T03:40:29;141;139.4;132.2
57798;PMS7003;43626;53.866;30.298;2023-08-06T03:45:47;136.8;135.2;126.2
57798;PMS7003;43626;53.866;30.298;2023-08-06T03:50:45;137.4;136.2;128.2
57798;PMS7003;43626;53.866;30.298;2023-08-06T03:55:47;141.8;139.8;131.8
57798;PMS7003;43626;53.866;30.298;2023-08-06T04:00:57;136.6;133.4;123.2
57798;PMS7003;43626;53.866;30.298;2023-08-06T04:05:45;137;135.2;127.2
57798;PMS7003;43626;53.866;30.298;2023-08-06T04:10:37;137;135.6;127.2
57798;PMS7003;43626;53.866;30.298;2023-08-06T04:15:49;138.5;136;126.3
57798;PMS7003;43626;53.866;30.298;2023-08-06T04:20:23;138.6;136;127.6
57798;PMS7003;43626;53.866;30.298;2023-08-06T04:25:23;139.2;137.4;127.8
57798;PMS7003;43626;53.866;30.298;2023-08-06T04:30:47;139.2;137.6;128.6
57798;PMS7003;43626;53.866;30.298;2023-08-06T04:36:01;136.8;135.2;126.2
57798;PMS7003;43626;53.866;30.298;2023-08-06T04:40:41;135;133.8;127.2
57798;PMS7003;43626;53.866;30.298;2023-08-06T04:45:23;137.6;136;128
57798;PMS7003;43626;53.866;30.298;2023-08-06T04:50:47;144.8;142.6;134
57798;PMS7003;43626;53.866;30.298;2023-08-06T04:55:37;143.8;141.4;133.4
57798;PMS7003;43626;53.866;30.298;2023-08-06T05:00:37;154.4;152.6;141.6
57798;PMS7003;43626;53.866;30.298;2023-08-06T05:05:51;150.8;147.6;139.8
57798;PMS7003;43626;53.866;30.298;2023-08-06T05:11:01;149;146.8;138
57798;PMS7003;43626;53.866;30.298;2023-08-06T05:15:31;156;153.8;145.8
57798;PMS7003;43626;53.866;30.298;2023-08-06T05:20:23;153.6;151.8;142.8
57798;PMS7003;43626;53.866;30.298;2023-08-06T05:26:01;155.2;152.6;144.6
57798;PMS7003;43626;53.866;30.298;2023-08-06T05:30:51;160.4;157.6;148.6
57798;PMS7003;43626;53.866;30.298;2023-08-06T05:35:33;158;155.6;147.4
57798;PMS7003;43626;53.866;30.298;2023-08-06T05:40:41;155;152.8;143.6
57798;PMS7003;43626;53.866;30.298;2023-08-06T05:45:51;154.6;153.2;143.8
57798;PMS7003;43626;53.866;30.298;2023-08-06T05:50:37;160.4;158.8;150.4
57798;PMS7003;43626;53.866;30.298;2023-08-06T05:55:29;161;158.8;150.5
57798;PMS7003;43626;53.866;30.298;2023-08-06T06:00:51;163.6;162.4;153.4
57798;PMS7003;43626;53.866;30.298;2023-08-06T06:05:51;153.8;152.4;144.2
57798;PMS7003;43626;53.866;30.298;2023-08-06T06:11:01;149.2;147.8;137.8
57798;PMS7003;43626;53.866;30.298;2023-08-06T06:15:41;144.4;142.6;131.6
57798;PMS7003;43626;53.866;30.298;2023-08-06T06:20:41;141.4;138.6;127.8
57798;PMS7003;43626;53.866;30.298;2023-08-06T06:25:23;151.8;147.4;135.4
57798;PMS7003;43626;53.866;30.298;2023-08-06T06:31:01;157.4;150.2;137.6
57798;PMS7003;43626;53.866;30.298;2023-08-06T06:35:51;156.4;149.2;136.6
57798;PMS7003;43626;53.866;30.298;2023-08-06T06:40:54;152.3;142.8;128.5
57798;PMS7003;43626;53.866;30.298;2023-08-06T06:46:01;144.6;136.6;123.2
57798;PMS7003;43626;53.866;30.298;2023-08-06T06:50:47;158;150.4;138.4
57798;PMS7003;43626;53.866;30.298;2023-08-06T06:55:29;146.6;138;124.8
57798;PMS7003;43626;53.866;30.298;2023-08-06T07:00:23;154.2;147.6;132.8
57798;PMS7003;43626;53.866;30.298;2023-08-06T07:06:01;163;157.2;143.6
57798;PMS7003;43626;53.866;30.298;2023-08-06T07:10:47;158.6;150.6;137.8
57798;PMS7003;43626;53.866;30.298;2023-08-06T07:16:01;170.8;161.8;150
57798;PMS7003;43626;53.866;30.298;2023-08-06T07:21:01;162.4;154;144.4
57798;PMS7003;43626;53.866;30.298;2023-08-06T07:25:43;166.4;157;146.4
57798;PMS7003;43626;53.866;30.298;2023-08-06T07:30:47;165.4;158.4;149.6
57798;PMS7003;43626;53.866;30.298;2023-08-06T07:35:51;177.2;169;161.2
57798;PMS7003;43626;53.866;30.298;2023-08-06T07:41:01;178;170.8;161.8
57798;PMS7003;43626;53.866;30.298;2023-08-06T07:45:47;169.8;162.8;155.2
57798;PMS7003;43626;53.866;30.298;2023-08-06T07:50:23;172.2;165.2;156.6
57798;PMS7003;43626;53.866;30.298;2023-08-06T07:56:01;170.8;164.6;156.6
57798;PMS7003;43626;53.866;30.298;2023-08-06T08:00:51;180.2;173.2;164.6
57798;PMS7003;43626;53.866;30.298;2023-08-06T08:05:23;181.4;178;170
57798;PMS7003;43626;53.866;30.298;2023-08-06T08:10:23;169;165.2;156.6
57798;PMS7003;43626;53.866;30.298;2023-08-06T08:15:47;170.4;165.2;157
57798;PMS7003;43626;53.866;30.298;2023-08-06T08:20:47;178;175.8;167.4
57798;PMS7003;43626;53.866;30.298;2023-08-06T08:25:33;173.4;170;163
57798;PMS7003;43626;53.866;30.298;2023-08-06T08:30:23;177.4;176.2;169
57798;PMS7003;43626;53.866;30.298;2023-08-06T08:35:23;178;174;166.8
57798;PMS7003;43626;53.866;30.298;2023-08-06T08:40:31;170.5;167.3;160.8
57798;PMS7003;43626;53.866;30.298;2023-08-06T08:45:23;174.8;171.6;165.2
57798;PMS7003;43626;53.866;30.298;2023-08-06T08:50:31;172.8;168.6;161.8
57798;PMS7003;43626;53.866;30.298;2023-08-06T08:55:47;177.2;172;164.8
57798;PMS7003;43626;53.866;30.298;2023-08-06T09:01:01;174;169;162.2
57798;PMS7003;43626;53.866;30.298;2023-08-06T09:05:52;186.4;181;170.2
57798;PMS7003;43626;53.866;30.298;2023-08-06T09:10:23;188;182.8;173.4
57798;PMS7003;43626;53.866;30.298;2023-08-06T09:15:47;189;184.8;177.2
57798;PMS7003;43626;53.866;30.298;2023-08-06T09:20:37;181.2;179.2;171.4
57798;PMS7003;43626;53.866;30.298;2023-08-06T09:25:24;175;169.4;161.6
57798;PMS7003;43626;53.866;30.298;2023-08-06T09:30:52;176;171;162.8
57798;PMS7003;43626;53.866;30.298;2023-08-06T09:36:06;174.4;172.4;164.4
57798;PMS7003;43626;53.866;30.298;2023-08-06T09:40:29;181.4;178.4;171.4
57798;PMS7003;43626;53.866;30.298;2023-08-06T09:45:41;182.5;180.3;173.3
57798;PMS7003;43626;53.866;30.298;2023-08-06T09:51:01;185.4;182.8;174.8
57798;PMS7003;43626;53.866;30.298;2023-08-06T09:55:51;180;177.6;167.8
57798;PMS7003;43626;53.866;30.298;2023-08-06T10:00:37;178.2;175.6;167.2
57798;PMS7003;43626;53.866;30.298;2023-08-06T10:05:35;179.2;176.8;168.6
57798;PMS7003;43626;53.866;30.298;2023-08-06T10:11:02;180;177.8;169
57798;PMS7003;43626;53.866;30.298;2023-08-06T10:15:30;175;173.4;166
57798;PMS7003;43626;53.866;30.298;2023-08-06T10:20:23;180.2;177.6;167.6
57798;PMS7003;43626;53.866;30.298;2023-08-06T10:25:53;172.6;169.6;160.8
57798;PMS7003;43626;53.866;30.298;2023-08-06T10:30:51;159.8;157.2;147
57798;PMS7003;43626;53.866;30.298;2023-08-06T10:36:01;167.2;165.6;155.6
57798;PMS7003;43626;53.866;30.298;2023-08-06T10:40:29;169.4;167.8;158
57798;PMS7003;43626;53.866;30.298;2023-08-06T10:45:29;166.5;164.8;155.8
57798;PMS7003;43626;53.866;30.298;2023-08-06T10:50:29;168.2;165;155.4
57798;PMS7003;43626;53.866;30.298;2023-08-06T10:56:01;168;166.4;156
57798;PMS7003;43626;53.866;30.298;2023-08-06T11:00:51;175.2;172.6;161
57798;PMS7003;43626;53.866;30.298;2023-08-06T11:05:51;182.4;181;169
57798;PMS7003;43626;53.866;30.298;2023-08-06T11:11:08;181.2;178.8;165.8
57798;PMS7003;43626;53.866;30.298;2023-08-06T11:15:51;178.2;173.4;158.4
57798;PMS7003;43626;53.866;30.298;2023-08-06T11:20:29;158.6;155.2;144
57798;PMS7003;43626;53.866;30.298;2023-08-06T11:25:53;160;157.2;144
57798;PMS7003;43626;53.866;30.298;2023-08-06T11:31:01;183.4;180.2;161.4
57798;PMS7003;43626;53.866;30.298;2023-08-06T11:36:01;169.8;166.6;150.8
57798;PMS7003;43626;53.866;30.298;2023-08-06T11:41:01;172.6;170.2;155.4
57798;PMS7003;43626;53.866;30.298;2023-08-06T11:46:03;176.5;173.8;160
57798;PMS7003;43626;53.866;30.298;2023-08-06T11:50:54;170.6;168.8;153.4
57798;PMS7003;43626;53.866;30.298;2023-08-06T11:55:39;165.8;163.4;150
57798;PMS7003;43626;53.866;30.298;2023-08-06T12:00:53;166.6;163.8;149.6
57798;PMS7003;43626;53.866;30.298;2023-08-06T12:06:03;170.6;169;153.2
57798;PMS7003;43626;53.866;30.298;2023-08-06T12:10:47;175.6;173.2;157.2
57798;PMS7003;43626;53.866;30.298;2023-08-06T12:15:37;168;167.2;150.6
57798;PMS7003;43626;53.866;30.298;2023-08-06T12:21:03;172;171.2;155
57798;PMS7003;43626;53.866;30.298;2023-08-06T12:25:23;167.4;166.6;151.2
57798;PMS7003;43626;53.866;30.298;2023-08-06T12:30:37;170.2;169.6;153.6
57798;PMS7003;43626;53.866;30.298;2023-08-06T12:35:23;174;171.8;156.4
57798;PMS7003;43626;53.866;30.298;2023-08-06T12:40:47;163.8;161.4;145.6
57798;PMS7003;43626;53.866;30.298;2023-08-06T12:45:33;171.8;170.3;156.3
57798;PMS7003;43626;53.866;30.298;2023-08-06T12:50:53;175.8;174;159.4
57798;PMS7003;43626;53.866;30.298;2023-08-06T12:55:29;170.8;168.8;154
57798;PMS7003;43626;53.866;30.298;2023-08-06T13:00:23;183.8;182.8;169
57798;PMS7003;43626;53.866;30.298;2023-08-06T13:05:29;179.4;176.4;161.8
57798;PMS7003;43626;53.866;30.298;2023-08-06T13:10:37;181.2;179.6;166
57798;PMS7003;43626;53.866;30.298;2023-08-06T13:15:37;200.6;197.6;187
57798;PMS7003;43626;53.866;30.298;2023-08-06T13:20:47;204;202;193.4
57798;PMS7003;43626;53.866;30.298;2023-08-06T13:26:03;199.4;198.4;189.4
57798;PMS7003;43626;53.866;30.298;2023-08-06T13:30:27;195;193.2;185.2
57798;PMS7003;43626;53.866;30.298;2023-08-06T13:35:23;192.6;191;183.8
57798;PMS7003;43626;53.866;30.298;2023-08-06T13:41:03;190.6;189.4;182.8
57798;PMS7003;43626;53.866;30.298;2023-08-06T13:45:37;199.6;197.8;191.4
57798;PMS7003;43626;53.866;30.298;2023-08-06T13:50:37;200.8;199;192.5
57798;PMS7003;43626;53.866;30.298;2023-08-06T13:55:37;199.2;198;191
57798;PMS7003;43626;53.866;30.298;2023-08-06T14:00:53;198.6;197.2;190.4
57798;PMS7003;43626;53.866;30.298;2023-08-06T14:05:29;198;196.4;188.6
57798;PMS7003;43626;53.866;30.298;2023-08-06T14:10:23;196.8;194.6;187.4
57798;PMS7003;43626;53.866;30.298;2023-08-06T14:16:03;200.4;199.6;191.6
57798;PMS7003;43626;53.866;30.298;2023-08-06T14:20:53;199.2;197.2;190
57798;PMS7003;43626;53.866;30.298;2023-08-06T14:25:39;199;198.2;191
57798;PMS7003;43626;53.866;30.298;2023-08-06T14:30:43;196;194;186.6
57798;PMS7003;43626;53.866;30.298;2023-08-06T14:36:03;197.2;195.4;188.2
57798;PMS7003;43626;53.866;30.298;2023-08-06T14:40:29;195.8;194.2;186.6
57798;PMS7003;43626;53.866;30.298;2023-08-06T14:45:37;194;191;182.4
57798;PMS7003;43626;53.866;30.298;2023-08-06T14:50:53;193;191;183.8
57798;PMS7003;43626;53.866;30.298;2023-08-06T14:56:03;187.4;186;177.6
57798;PMS7003;43626;53.866;30.298;2023-08-06T15:01:03;187.2;185.6;178.4
57798;PMS7003;43626;53.866;30.298;2023-08-06T15:05:43;206;204;195.6
57798;PMS7003;43626;53.866;30.298;2023-08-06T15:10:23;200.6;198.6;191
57798;PMS7003;43626;53.866;30.298;2023-08-06T15:15:23;189.8;188.6;180.2
57798;PMS7003;43626;53.866;30.298;2023-08-06T15:21:03;192;190.8;181.8
57798;PMS7003;43626;53.866;30.298;2023-08-06T15:25:53;183;180.6;169.4
57798;PMS7003;43626;53.866;30.298;2023-08-06T15:30:53;176;174.4;163.8
57798;PMS7003;43626;53.866;30.298;2023-08-06T15:36:01;180;178.4;167.6
57798;PMS7003;43626;53.866;30.298;2023-08-06T15:40:25;178.4;175;164.8
57798;PMS7003;43626;53.866;30.298;2023-08-06T15:45:23;165;163;152.4
57798;PMS7003;43626;53.866;30.298;2023-08-06T15:50:45;162.5;160.8;149.8
57798;PMS7003;43626;53.866;30.298;2023-08-06T15:55:47;166;164.4;152.2
57798;PMS7003;43626;53.866;30.298;2023-08-06T16:01:03;163.8;162;150.8
57798;PMS7003;43626;53.866;30.298;2023-08-06T16:06:03;168.2;166.4;153
57798;PMS7003;43626;53.866;30.298;2023-08-06T16:11:03;168.2;167.2;154.6
57798;PMS7003;43626;53.866;30.298;2023-08-06T16:15:53;168;165.2;154.4
57798;PMS7003;43626;53.866;30.298;2023-08-06T16:20:47;173;170.8;159.8
57798;PMS7003;43626;53.866;30.298;2023-08-06T16:25:53;172.2;170.6;159.4
57798;PMS7003;43626;53.866;30.298;2023-08-06T16:31:03;169.6;167.6;157.6
57798;PMS7003;43626;53.866;30.298;2023-08-06T16:35:47;173.8;171.6;160
57798;PMS7003;43626;53.866;30.298;2023-08-06T16:40:23;177.6;175.2;165.4
57798;PMS7003;43626;53.866;30.298;2023-08-06T16:46:03;181.6;180.2;171
57798;PMS7003;43626;53.866;30.298;2023-08-06T16:50:47;178.8;176.5;165.5
57798;PMS7003;43626;53.866;30.298;2023-08-06T16:55:29;172.2;171.2;161
57798;PMS7003;43626;53.866;30.298;2023-08-06T17:00:33;175;173.8;163.8
57798;PMS7003;43626;53.866;30.298;2023-08-06T17:05:31;176.2;175.2;165.8
57798;PMS7003;43626;53.866;30.298;2023-08-06T17:10:41;181;178;169
57798;PMS7003;43626;53.866;30.298;2023-08-06T17:15:25;188.6;186.8;176.4
57798;PMS7003;43626;53.866;30.298;2023-08-06T17:21:03;189.8;188;178.8
57798;PMS7003;43626;53.866;30.298;2023-08-06T17:25:31;193;190.2;181.2
57798;PMS7003;43626;53.866;30.298;2023-08-06T17:30:31;193.2;191.8;183.8
57798;PMS7003;43626;53.866;30.298;2023-08-06T17:35:39;187.8;185.4;176.2
57798;PMS7003;43626;53.866;30.298;2023-08-06T17:40:31;188.6;186.2;177.4
57798;PMS7003;43626;53.866;30.298;2023-08-06T17:45:53;187.4;185.2;177
57798;PMS7003;43626;53.866;30.298;2023-08-06T17:51:03;184.5;182;173
57798;PMS7003;43626;53.866;30.298;2023-08-06T17:55:30;195.4;193.2;185.6
57798;PMS7003;43626;53.866;30.298;2023-08-06T18:00:23;193.2;190.4;183.2
57798;PMS7003;43626;53.866;30.298;2023-08-06T18:06:03;186.6;185;178.2
57798;PMS7003;43626;53.866;30.298;2023-08-06T18:10:47;186.6;184.8;178.4
57798;PMS7003;43626;53.866;30.298;2023-08-06T18:15:23;213.8;212;205.6
57798;PMS7003;43626;53.866;30.298;2023-08-06T18:20:47;258;256.8;250.4
57798;PMS7003;43626;53.866;30.298;2023-08-06T18:25:53;250.2;247;239.6
57798;PMS7003;43626;53.866;30.298;2023-08-06T18:30:23;224.2;221.8;216.6
57798;PMS7003;43626;53.866;30.298;2023-08-06T18:35:23;207.6;205.4;198.2
57798;PMS7003;43626;53.866;30.298;2023-08-06T18:41:03;202.2;201.6;194.8
57798;PMS7003;43626;53.866;30.298;2023-08-06T18:45:47;201.8;199.4;191.4
57798;PMS7003;43626;53.866;30.298;2023-08-06T18:50:47;198.2;196.4;188.8
57798;PMS7003;43626;53.866;30.298;2023-08-06T18:55:45;201;199.5;192.5
57798;PMS7003;43626;53.866;30.298;2023-08-06T19:01:01;201.6;199;191
57798;PMS7003;43626;53.866;30.298;2023-08-06T19:05:25;198.6;196.6;190.2
57798;PMS7003;43626;53.866;30.298;2023-08-06T19:10:23;186.2;184.6;177
57798;PMS7003;43626;53.866;30.298;2023-08-06T19:15:53;180;178;170.8
57798;PMS7003;43626;53.866;30.298;2023-08-06T19:20:54;180.6;176;168
57798;PMS7003;43626;53.866;30.298;2023-08-06T19:26:01;179.2;177.2;169.4
57798;PMS7003;43626;53.866;30.298;2023-08-06T19:30:23;168;166.4;159
57798;PMS7003;43626;53.866;30.298;2023-08-06T19:35:29;165.2;162.4;153.4
57798;PMS7003;43626;53.866;30.298;2023-08-06T19:40:29;169.2;165.6;157
57798;PMS7003;43626;53.866;30.298;2023-08-06T19:46:03;173.8;170.8;164.2
57798;PMS7003;43626;53.866;30.298;2023-08-06T19:50:54;180.8;178.4;170.2
57798;PMS7003;43626;53.866;30.298;2023-08-06T19:55:45;192.8;190.5;182.5
57798;PMS7003;43626;53.866;30.298;2023-08-06T20:01:03;185.4;183.8;174.4
57798;PMS7003;43626;53.866;30.298;2023-08-06T20:05:53;180.6;178.4;169.6
57798;PMS7003;43626;53.866;30.298;2023-08-06T20:10:29;181.6;176;167.4
57798;PMS7003;43626;53.866;30.298;2023-08-06T20:15:35;169.8;165.4;157.4
57798;PMS7003;43626;53.866;30.298;2023-08-06T20:21:01;161.8;156.8;147.8
57798;PMS7003;43626;53.866;30.298;2023-08-06T20:26:03;157.8;152.8;143.6
57798;PMS7003;43626;53.866;30.298;2023-08-06T20:31:03;161.4;156.8;147.8
57798;PMS7003;43626;53.866;30.298;2023-08-06T20:36:03;166.8;161.6;153.6
57798;PMS7003;43626;53.866;30.298;2023-08-06T20:40:53;168.2;165.4;157.6
57798;PMS7003;43626;53.866;30.298;2023-08-06T20:45:29;169.2;164;155
57798;PMS7003;43626;53.866;30.298;2023-08-06T20:50:53;166.6;160.4;152.6
57798;PMS7003;43626;53.866;30.298;2023-08-06T20:56:04;167;163;152.5
57798;PMS7003;43626;53.866;30.298;2023-08-06T21:00:47;164.6;158.2;148.4
57798;PMS7003;43626;53.866;30.298;2023-08-06T21:05:29;167.8;162.2;152.8
57798;PMS7003;43626;53.866;30.298;2023-08-06T21:11:04;179;171.4;162.8
57798;PMS7003;43626;53.866;30.298;2023-08-06T21:15:54;180.8;175.2;165.2
57798;PMS7003;43626;53.866;30.298;2023-08-06T21:20:23;179.2;174.6;165.2
57798;PMS7003;43626;53.866;30.298;2023-08-06T21:25:37;183;176;166.8
57798;PMS7003;43626;53.866;30.298;2023-08-06T21:30:37;178;170.8;162
57798;PMS7003;43626;53.866;30.298;2023-08-06T21:35:31;175.2;168.2;158
57798;PMS7003;43626;53.866;30.298;2023-08-06T21:41:04;170.4;163.8;153.8
57798;PMS7003;43626;53.866;30.298;2023-08-06T21:45:43;165.8;157.8;148.8
57798;PMS7003;43626;53.866;30.298;2023-08-06T21:50:23;165.2;159.6;151
57798;PMS7003;43626;53.866;30.298;2023-08-06T21:55:47;165.5;158.3;151
57798;PMS7003;43626;53.866;30.298;2023-08-06T22:00:31;164.6;158;150
57798;PMS7003;43626;53.866;30.298;2023-08-06T22:05:37;163.2;155;147.2
57798;PMS7003;43626;53.866;30.298;2023-08-06T22:10:49;166.4;158.2;150.8
57798;PMS7003;43626;53.866;30.298;2023-08-06T22:16:01;170.4;164;154.4
57798;PMS7003;43626;53.866;30.298;2023-08-06T22:20:45;168;159.2;149.4
57798;PMS7003;43626;53.866;30.298;2023-08-06T22:25:21;172.4;164.4;155.8
57798;PMS7003;43626;53.866;30.298;2023-08-06T22:31:01;170.6;165.2;156.6
57798;PMS7003;43626;53.866;30.298;2023-08-06T22:35:21;169.4;161.8;153.4
57798;PMS7003;43626;53.866;30.298;2023-08-06T22:40:35;172.6;165.8;156.8
57798;PMS7003;43626;53.866;30.298;2023-08-06T22:45:21;179;171.8;162.8
57798;PMS7003;43626;53.866;30.298;2023-08-06T22:50:51;171.4;164.6;156.4
57798;PMS7003;43626;53.866;30.298;2023-08-06T22:55:21;176.8;169.5;161
57798;PMS7003;43626;53.866;30.298;2023-08-06T23:00:41;175.2;166.4;157
57798;PMS7003;43626;53.866;30.298;2023-08-06T23:06:01;176.4;170.4;161.6
57798;PMS7003;43626;53.866;30.298;2023-08-06T23:10:51;173.8;165;155.6
57798;PMS7003;43626;53.866;30.298;2023-08-06T23:15:29;174.4;166.2;158.2
57798;PMS7003;43626;53.866;30.298;2023-08-06T23:20:27;178;173.2;163.2
57798;PMS7003;43626;53.866;30.298;2023-08-06T23:26:01;173.8;167.6;158
57798;PMS7003;43626;53.866;30.298;2023-08-06T23:30:21;171.8;165.8;157.4
57798;PMS7003;43626;53.866;30.298;2023-08-06T23:35:21;170;162.8;154.6
57798;PMS7003;43626;53.866;30.298;2023-08-06T23:40:37;167.2;159.6;151.2
57798;PMS7003;43626;53.866;30.298;2023-08-06T23:45:51;171;163.4;155.6
57798;PMS7003;43626;53.866;30.298;2023-08-06T23:51:01;166;159.6;151.4
57798;PMS7003;43626;53.866;30.298;2023-08-06T23:55:41;169;161.4;154
